Venez Explorer Les Airs Avec Nous!

Que ce soit pour un vol de découverte, pour apprendre l’arts du pilotage ou pour voyager, venez nous rejoindre.

Information en heures locale pour LFDL
22 November 2019

Metar
LFBI 220100Z AUTO 17009KT CAVOK 05/05 Q1002 TEMPO VRB15G25KT 3000 SHRA BKN030TCU

Lever du soleil aéronautique : 07:43

Lever du soleil : 08:13

Coucher du soleil : 17:17

Coucher du soleil aéronautique : 17:47

Actualité

Bienvenue à tous, l' Aéroclub Loudunais vous accueille sur son nouveau site internet.

Newsletter Sign Up

Praesent libero sed cursus anted dapibus diam
Fermer le menu